Time;durP1;ratioP1;P1;durP2;ratioP2;P2;SDS_P1;SDS_P2;PMS_P1;PMS_P2;Temp;Humidity;BMP_temperature;BMP_pressure;BME280_temperature;BME280_humidity;BME280_pressure;Samples;Min_cycle;Max_cycle;Signal;HPM_P1;HPM_P2
2021/12/23 00:01:51;;;;;;;14.33;12.80;;;;;;;-8.09;100.00;96746.97;5089487;28;20435;-69
2021/12/23 00:04:18;;;;;;;15.30;13.77;;;;;;;-7.83;100.00;96778.72;5089523;28;20440;-68
2021/12/23 00:06:45;;;;;;;17.80;15.40;;;;;;;-8.10;100.00;96730.00;5090076;28;20818;-69
2021/12/23 00:09:12;;;;;;;16.90;14.10;;;;;;;-7.83;100.00;96773.59;5094865;28;20435;-68
2021/12/23 00:11:39;;;;;;;17.97;14.50;;;;;;;-7.94;100.00;96774.97;5093349;28;20466;-69
2021/12/23 00:14:10;;;;;;;14.70;12.23;;;;;;;-8.02;100.00;96779.50;5093423;28;20538;-68
2021/12/23 00:17:06;;;;;;;12.60;9.90;;;;;;;-8.28;100.00;96770.00;5094629;28;20447;-69
2021/12/23 00:24:45;;;;;;;21.40;14.63;;;;;;;-7.74;100.00;96774.97;5094581;28;20887;-69
2021/12/23 00:27:14;;;;;;;20.90;13.00;;;;;;;-7.85;100.00;96760.16;5093061;28;20457;-68
2021/12/23 00:29:41;;;;;;;16.73;11.90;;;;;;;-7.83;100.00;96750.50;5094484;28;20746;-68
2021/12/23 00:32:09;;;;;;;19.73;13.03;;;;;;;-7.69;100.00;96756.38;5094380;28;20508;-68
2021/12/23 00:34:37;;;;;;;16.93;10.93;;;;;;;-7.79;100.00;96754.22;5092962;28;20854;-68
2021/12/23 00:37:07;;;;;;;17.40;11.50;;;;;;;-7.92;100.00;96743.97;5092815;28;20462;-68
2021/12/23 00:39:34;;;;;;;12.40;10.37;;;;;;;-8.16;100.00;96755.63;5092918;28;20797;-68
2021/12/23 00:42:06;;;;;;;15.57;11.27;;;;;;;-8.43;100.00;96740.25;5092777;28;20435;-68
2021/12/23 00:44:35;;;;;;;13.30;10.77;;;;;;;-8.27;100.00;96764.72;5094282;28;20510;-68
2021/12/23 00:47:03;;;;;;;14.63;11.80;;;;;;;-8.12;100.00;96769.66;5092695;28;20520;-68
2021/12/23 00:49:29;;;;;;;12.50;10.40;;;;;;;-7.96;100.00;96763.34;5092756;28;20470;-68
2021/12/23 00:52:01;;;;;;;15.00;10.60;;;;;;;-7.98;100.00;96752.47;5092579;28;20467;-68
2021/12/23 00:54:28;;;;;;;22.93;12.00;;;;;;;-7.85;100.00;96752.47;5075803;28;20469;-68
2021/12/23 00:56:55;;;;;;;20.87;14.87;;;;;;;-7.78;100.00;96754.03;5092611;28;20500;-68
2021/12/23 00:59:21;;;;;;;21.40;14.10;;;;;;;-7.93;100.00;96750.09;5075566;28;20472;-68
2021/12/23 01:01:48;;;;;;;20.50;15.00;;;;;;;-8.03;100.00;96732.53;5075785;28;21037;-68
2021/12/23 01:04:18;;;;;;;17.57;13.50;;;;;;;-7.80;100.00;96755.22;5093720;28;20428;-68
2021/12/23 01:06:45;;;;;;;19.07;12.60;;;;;;;-7.86;100.00;96738.06;5092299;28;20493;-68
2021/12/23 01:09:12;;;;;;;13.57;11.17;;;;;;;-7.71;100.00;96758.38;5093692;28;21002;-68
2021/12/23 01:11:38;;;;;;;18.27;13.00;;;;;;;-7.76;100.00;96759.75;5092367;28;20490;-68
2021/12/23 01:17:22;;;;;;;16.07;11.17;;;;;;;-7.83;100.00;96746.16;5021969;28;20458;-68
2021/12/23 01:19:53;;;;;;;12.77;9.33;;;;;;;-7.77;100.00;96744.53;5092489;28;20934;-68
2021/12/23 01:22:21;;;;;;;14.30;10.50;;;;;;;-7.73;100.00;96757.78;5093530;28;20412;-68
2021/12/23 01:24:49;;;;;;;15.03;10.10;;;;;;;-7.75;100.00;96740.00;5093365;28;20439;-68
2021/12/23 01:27:16;;;;;;;16.03;10.50;;;;;;;-7.81;100.00;96745.94;5092139;28;20472;-68
2021/12/23 01:29:43;;;;;;;15.83;12.00;;;;;;;-7.85;100.00;96748.13;5075524;28;20858;-68
2021/12/23 01:32:10;;;;;;;14.73;10.80;;;;;;;-8.01;100.00;96740.03;5091845;28;20471;-68
2021/12/23 01:34:37;;;;;;;15.30;10.80;;;;;;;-8.03;100.00;96729.97;5091969;28;20485;-68
2021/12/23 01:37:04;;;;;;;13.87;9.50;;;;;;;-8.00;100.00;96726.25;5074949;28;20501;-69
2021/12/23 01:39:32;;;;;;;13.13;10.20;;;;;;;-7.95;100.00;96724.66;5091927;28;20427;-68
2021/12/23 01:41:58;;;;;;;12.00;10.33;;;;;;;-7.94;100.00;96722.88;5091873;28;20944;-68
2021/12/23 01:44:25;;;;;;;17.30;11.00;;;;;;;-7.98;100.00;96711.44;5093257;28;20463;-68
2021/12/23 01:46:52;;;;;;;17.87;13.47;;;;;;;-7.85;100.00;96732.72;5074889;28;20451;-68
2021/12/23 01:49:18;;;;;;;14.43;10.60;;;;;;;-7.83;100.00;96722.28;5074895;28;20981;-68
2021/12/23 01:51:45;;;;;;;18.47;11.13;;;;;;;-7.98;100.00;96701.97;5092955;28;20512;-69
2021/12/23 01:54:12;;;;;;;13.70;9.83;;;;;;;-7.83;100.00;96712.00;5092920;28;20467;-68
2021/12/23 01:56:38;;;;;;;11.67;10.47;;;;;;;-8.00;100.00;96686.00;5091476;28;20865;-68
2021/12/23 01:59:05;;;;;;;18.37;11.43;;;;;;;-7.85;100.00;96707.06;5092819;28;20447;-68
2021/12/23 02:01:32;;;;;;;13.20;10.20;;;;;;;-7.75;100.00;96709.22;5093043;28;20427;-67
2021/12/23 02:03:59;;;;;;;10.57;9.07;;;;;;;-7.80;100.00;96714.16;5091745;28;20520;-67
2021/12/23 02:06:26;;;;;;;15.23;10.60;;;;;;;-7.91;100.00;96694.25;5091624;28;20439;-67
2021/12/23 02:08:52;;;;;;;10.87;9.77;;;;;;;-7.79;100.00;96713.97;5091649;28;20431;-67
2021/12/23 02:11:19;;;;;;;11.57;10.47;;;;;;;-7.93;100.00;96680.84;5092671;28;20874;-68
2021/12/23 02:13:47;;;;;;;13.17;9.43;;;;;;;-7.73;100.00;96714.97;5091335;28;20470;-68
2021/12/23 02:16:14;;;;;;;15.70;10.50;;;;;;;-7.64;100.00;96723.22;5091173;28;20444;-67
2021/12/23 02:18:41;;;;;;;14.23;9.40;;;;;;;-7.65;100.00;96701.88;5092527;28;20523;-68
2021/12/23 02:21:07;;;;;;;22.33;10.20;;;;;;;-7.64;100.00;96702.69;5074343;28;20462;-68
2021/12/23 02:23:35;;;;;;;10.80;9.70;;;;;;;-7.88;100.00;96679.28;5092336;28;20995;-68
2021/12/23 02:26:03;;;;;;;16.70;10.70;;;;;;;-7.83;100.00;96694.03;5091194;28;20805;-68
2021/12/23 02:28:30;;;;;;;14.77;10.60;;;;;;;-7.87;100.00;96683.41;5090904;28;20483;-69
2021/12/23 02:30:56;;;;;;;12.10;9.37;;;;;;;-7.69;100.00;96694.81;5090724;28;20491;-68
2021/12/23 02:33:26;;;;;;;14.67;11.50;;;;;;;-7.69;100.00;96681.97;5090896;28;20439;-68
2021/12/23 02:35:55;;;;;;;13.53;10.33;;;;;;;-7.63;100.00;96693.97;5090896;28;20475;-68
2021/12/23 02:38:22;;;;;;;17.60;10.23;;;;;;;-7.77;100.00;96676.06;5090729;28;20542;-68
2021/12/23 02:40:49;;;;;;;11.47;9.50;;;;;;;-7.95;100.00;96646.91;5090674;28;20427;-68
2021/12/23 02:43:22;;;;;;;16.47;12.10;;;;;;;-7.75;100.00;96671.50;5090734;28;20440;-68
2021/12/23 02:45:51;;;;;;;16.73;13.03;;;;;;;-7.74;100.00;96669.75;5090693;28;20443;-68
2021/12/23 02:48:24;;;;;;;12.43;9.80;;;;;;;-7.81;100.00;96668.97;5092041;28;20487;-68
2021/12/23 02:50:54;;;;;;;16.00;11.50;;;;;;;-7.83;100.00;96642.72;5090441;28;20946;-68
2021/12/23 02:53:21;;;;;;;12.77;11.23;;;;;;;-7.71;100.00;96637.75;5091026;28;20969;-67
2021/12/23 02:55:48;;;;;;;13.00;9.50;;;;;;;-7.78;100.00;96636.00;5093291;28;20530;-67
2021/12/23 02:58:15;;;;;;;15.47;10.70;;;;;;;-7.77;100.00;96640.13;5092863;28;20505;-67
2021/12/23 03:00:45;;;;;;;16.23;10.10;;;;;;;-7.78;100.00;96623.16;5092860;28;20439;-68
2021/12/23 03:03:12;;;;;;;17.90;11.40;;;;;;;-7.74;100.00;96631.28;5091918;28;20418;-69
2021/12/23 03:05:39;;;;;;;18.87;11.87;;;;;;;-7.90;100.00;96604.25;5073539;28;20526;-68
2021/12/23 03:08:06;;;;;;;11.60;10.40;;;;;;;-7.91;100.00;96610.38;5091660;28;20819;-68
2021/12/23 03:10:32;;;;;;;14.07;9.97;;;;;;;-7.80;100.00;96632.84;5090415;28;20810;-68
2021/12/23 03:12:59;;;;;;;14.20;11.00;;;;;;;-7.94;100.00;96599.75;5091657;28;21156;-68
2021/12/23 03:15:26;;;;;;;16.00;12.40;;;;;;;-7.79;100.00;96616.47;5090208;28;20868;-68
2021/12/23 03:17:52;;;;;;;15.33;11.80;;;;;;;-7.76;100.00;96610.13;5089978;28;20639;-68
2021/12/23 03:20:19;;;;;;;12.67;11.03;;;;;;;-7.75;100.00;96615.06;5091424;28;20435;-68
2021/12/23 03:22:46;;;;;;;14.60;11.47;;;;;;;-7.72;100.00;96618.22;5073307;28;20466;-68
2021/12/23 03:25:12;;;;;;;15.10;11.60;;;;;;;-7.74;100.00;96605.59;5090050;28;20488;-68
2021/12/23 03:27:39;;;;;;;15.67;11.40;;;;;;;-7.65;100.00;96613.84;5090160;28;20492;-68
2021/12/23 03:30:07;;;;;;;18.57;12.27;;;;;;;-7.67;100.00;96590.94;5090157;28;20806;-68
2021/12/23 03:32:33;;;;;;;19.60;10.40;;;;;;;-7.56;100.00;96592.09;5090093;28;20454;-69
2021/12/23 03:35:00;;;;;;;20.50;10.37;;;;;;;-7.53;100.00;96601.94;5091299;28;20427;-68
2021/12/23 03:37:27;;;;;;;21.60;12.00;;;;;;;-7.50;100.00;96588.69;5091277;28;20459;-68
2021/12/23 03:39:54;;;;;;;21.37;12.83;;;;;;;-7.66;100.00;96548.13;5090114;28;20946;-68
2021/12/23 03:42:20;;;;;;;18.40;12.90;;;;;;;-7.42;100.00;96556.88;5092861;28;20482;-68
2021/12/23 03:44:47;;;;;;;18.87;12.70;;;;;;;-7.47;100.00;96550.59;5094215;28;20563;-68
2021/12/23 03:47:14;;;;;;;18.30;11.27;;;;;;;-7.33;100.00;96568.47;5077314;28;20467;-68
2021/12/23 03:49:41;;;;;;;19.40;10.90;;;;;;;-7.11;100.00;96559.41;5094200;28;20467;-68
2021/12/23 03:52:08;;;;;;;20.20;11.93;;;;;;;-7.05;100.00;96552.69;5093966;28;20512;-68
2021/12/23 03:54:34;;;;;;;24.03;11.80;;;;;;;-6.96;100.00;96523.94;5077202;28;20447;-69
2021/12/23 03:57:01;;;;;;;14.60;9.70;;;;;;;-6.81;100.00;96543.38;5077100;28;20553;-68
2021/12/23 03:59:28;;;;;;;16.80;11.47;;;;;;;-6.91;100.00;96531.03;5093852;28;20492;-68
2021/12/23 04:01:55;;;;;;;15.97;11.60;;;;;;;-6.85;100.00;96543.00;5095280;28;20431;-70
2021/12/23 04:04:22;;;;;;;18.33;11.60;;;;;;;-7.10;100.00;96499.34;5093826;28;20463;-68
2021/12/23 04:06:48;;;;;;;18.73;11.20;;;;;;;-6.82;100.00;96540.00;5095001;28;20447;-68
2021/12/23 04:09:15;;;;;;;17.73;12.57;;;;;;;-6.58;100.00;96541.00;5095068;28;20522;-68
2021/12/23 04:11:41;;;;;;;18.83;11.27;;;;;;;-6.60;100.00;96532.72;5095044;28;20524;-68
2021/12/23 04:14:08;;;;;;;22.03;14.17;;;;;;;-6.53;100.00;96541.16;5076801;28;20443;-68
2021/12/23 04:16:35;;;;;;;20.83;14.10;;;;;;;-6.53;100.00;96527.53;5094850;28;20436;-68
2021/12/23 04:19:07;;;;;;;18.33;11.73;;;;;;;-6.48;100.00;96518.16;5076696;28;20439;-68
2021/12/23 04:21:35;;;;;;;17.57;12.10;;;;;;;-6.58;100.00;96518.63;5093586;28;20459;-68
2021/12/23 04:24:02;;;;;;;13.87;11.40;;;;;;;-6.61;100.00;96519.06;5093533;28;20431;-68
2021/12/23 04:26:29;;;;;;;14.30;10.33;;;;;;;-6.72;100.00;96512.06;5094755;28;20482;-68
2021/12/23 04:28:56;;;;;;;18.07;12.90;;;;;;;-6.90;100.00;96487.13;5093363;28;20484;-67
2021/12/23 04:31:23;;;;;;;15.73;11.77;;;;;;;-6.89;100.00;96495.63;5093187;28;20796;-67
2021/12/23 04:33:53;;;;;;;18.93;13.40;;;;;;;-6.87;100.00;96511.59;5094638;28;20543;-67
2021/12/23 04:36:20;;;;;;;14.00;11.70;;;;;;;-7.09;100.00;96505.25;5093070;28;20486;-67
2021/12/23 04:38:47;;;;;;;20.87;13.80;;;;;;;-6.99;100.00;96508.16;5093215;28;20462;-67
2021/12/23 04:41:14;;;;;;;12.70;10.80;;;;;;;-7.03;100.00;96489.03;5076548;28;20534;-70
2021/12/23 04:43:41;;;;;;;18.87;12.73;;;;;;;-7.09;100.00;96484.72;5092983;28;20462;-70
2021/12/23 04:46:08;;;;;;;14.07;12.67;;;;;;;-7.10;100.00;96494.22;5093049;28;20478;-70
2021/12/23 04:48:35;;;;;;;17.80;13.97;;;;;;;-6.93;100.00;96499.63;5094234;28;20455;-69
2021/12/23 04:51:01;;;;;;;14.60;11.30;;;;;;;-6.96;100.00;96502.59;5094325;28;20522;-69
2021/12/23 04:53:28;;;;;;;21.43;13.53;;;;;;;-7.12;100.00;96490.28;5092879;28;20488;-70
2021/12/23 04:55:55;;;;;;;22.87;14.40;;;;;;;-7.12;100.00;96496.19;5094150;28;20942;-68
2021/12/23 04:58:22;;;;;;;19.20;14.20;;;;;;;-7.09;100.00;96492.44;5094019;28;20459;-67
2021/12/23 05:00:51;;;;;;;18.57;13.07;;;;;;;-7.06;100.00;96484.31;5093914;28;20998;-68
2021/12/23 05:03:21;;;;;;;18.67;13.13;;;;;;;-7.02;100.00;96495.72;5075805;28;20522;-67
2021/12/23 05:05:49;;;;;;;23.07;15.00;;;;;;;-6.99;100.00;96485.81;5093845;28;20530;-67
2021/12/23 05:08:16;;;;;;;20.23;13.73;;;;;;;-6.99;100.00;96490.16;5093883;28;20452;-67
2021/12/23 05:10:43;;;;;;;17.17;14.53;;;;;;;-6.96;100.00;96489.75;5075663;28;20443;-68
2021/12/23 05:13:10;;;;;;;21.30;13.80;;;;;;;-6.95;100.00;96465.63;5092526;28;20486;-69
2021/12/23 05:15:37;;;;;;;23.43;14.67;;;;;;;-6.94;100.00;96462.06;5093800;28;20461;-70
2021/12/23 05:18:06;;;;;;;31.17;16.70;;;;;;;-6.64;100.00;96452.66;5092367;28;20466;-70
2021/12/23 05:20:33;;;;;;;26.43;14.23;;;;;;;-6.68;100.00;96443.00;5092466;28;20440;-69
2021/12/23 05:23:01;;;;;;;16.30;12.00;;;;;;;-6.67;100.00;96439.47;5092450;28;20457;-67
2021/12/23 05:25:27;;;;;;;16.87;12.00;;;;;;;-6.68;100.00;96443.78;5075464;28;20948;-68
2021/12/23 05:27:55;;;;;;;18.07;12.60;;;;;;;-6.80;100.00;96435.25;5093552;28;20459;-67
2021/12/23 05:30:24;;;;;;;18.67;12.80;;;;;;;-6.72;100.00;96457.31;5092233;28;20514;-68
2021/12/23 05:32:52;;;;;;;15.53;11.40;;;;;;;-6.77;100.00;96454.59;5075320;28;20459;-67
2021/12/23 05:35:20;;;;;;;17.80;13.03;;;;;;;-6.74;100.00;96452.38;5092090;28;20432;-67
2021/12/23 05:37:47;;;;;;;15.33;11.10;;;;;;;-6.69;100.00;96459.44;5075129;28;20451;-70
2021/12/23 05:40:17;;;;;;;20.70;13.10;;;;;;;-6.69;100.00;96444.81;5075261;28;20440;-70
2021/12/23 05:42:44;;;;;;;17.70;11.77;;;;;;;-6.65;100.00;96458.03;5093201;28;20862;-68
2021/12/23 05:45:11;;;;;;;19.63;13.70;;;;;;;-6.56;100.00;96465.22;5093258;28;20460;-70
2021/12/23 05:47:38;;;;;;;17.33;13.07;;;;;;;-6.65;100.00;96445.97;5091761;28;20459;-67
2021/12/23 05:50:07;;;;;;;16.67;11.13;;;;;;;-6.57;100.00;96450.78;5091807;28;20439;-67
2021/12/23 05:52:34;;;;;;;16.53;12.10;;;;;;;-6.66;100.00;96431.53;5091776;28;20869;-67
2021/12/23 05:55:02;;;;;;;16.13;13.20;;;;;;;-6.61;100.00;96447.09;5075040;28;20950;-67
2021/12/23 05:57:30;;;;;;;20.17;12.30;;;;;;;-6.62;100.00;96440.38;5091797;28;20443;-67
2021/12/23 05:59:56;;;;;;;18.93;13.97;;;;;;;-6.59;100.00;96421.16;5092820;28;20475;-67
2021/12/23 06:02:23;;;;;;;20.90;13.67;;;;;;;-6.50;100.00;96422.47;5074681;28;20423;-67
2021/12/23 06:04:50;;;;;;;18.87;14.10;;;;;;;-6.51;100.00;96407.25;5091064;28;20435;-70
2021/12/23 06:07:17;;;;;;;22.87;15.33;;;;;;;-6.52;100.00;96395.41;5091348;28;20487;-70
2021/12/23 06:09:44;;;;;;;17.83;13.70;;;;;;;-6.45;100.00;96417.44;5091341;28;20795;-67
2021/12/23 06:12:10;;;;;;;16.80;12.00;;;;;;;-6.49;100.00;96426.59;5074492;28;21055;-67
2021/12/23 06:14:37;;;;;;;19.97;13.17;;;;;;;-6.48;100.00;96424.81;5091245;28;20483;-68
2021/12/23 06:17:04;;;;;;;18.40;14.10;;;;;;;-6.53;100.00;96410.03;5091305;28;20483;-68
2021/12/23 06:19:31;;;;;;;25.20;13.40;;;;;;;-6.67;100.00;96401.69;5091226;28;20429;-68
2021/12/23 06:21:57;;;;;;;20.50;12.67;;;;;;;-6.51;100.00;96425.25;5091126;28;20478;-68
2021/12/23 06:24:24;;;;;;;19.80;11.73;;;;;;;-6.52;100.00;96426.25;5074329;28;20463;-67
2021/12/23 06:26:51;;;;;;;19.03;13.90;;;;;;;-6.69;100.00;96402.88;5074234;28;20459;-70
2021/12/23 06:29:17;;;;;;;22.10;12.77;;;;;;;-6.48;100.00;96429.94;5091004;28;20881;-70
2021/12/23 06:31:44;;;;;;;19.90;13.70;;;;;;;-6.44;100.00;96416.44;5092194;28;20431;-70
2021/12/23 06:34:10;;;;;;;17.90;11.73;;;;;;;-6.53;100.00;96374.06;5091013;28;20427;-70
2021/12/23 06:36:37;;;;;;;19.47;13.60;;;;;;;-6.21;100.00;96408.06;5091997;28;20896;-70
2021/12/23 06:39:05;;;;;;;19.87;12.97;;;;;;;-6.12;100.00;96409.31;5091084;28;20455;-68
2021/12/23 06:41:33;;;;;;;20.13;11.83;;;;;;;-6.24;100.00;96403.34;5091158;28;20481;-71
2021/12/23 06:43:59;;;;;;;17.93;12.10;;;;;;;-6.23;100.00;96412.63;5092146;28;20839;-68
2021/12/23 06:46:26;;;;;;;19.63;13.00;;;;;;;-6.45;100.00;96386.59;5090732;28;20489;-68
2021/12/23 06:48:53;;;;;;;19.00;12.87;;;;;;;-6.26;100.00;96400.22;5090673;28;20438;-68
2021/12/23 06:51:20;;;;;;;17.37;12.43;;;;;;;-6.13;100.00;96391.53;5092164;28;20934;-68
2021/12/23 06:53:46;;;;;;;16.17;11.57;;;;;;;-6.01;100.00;96390.56;5091863;28;20930;-68
2021/12/23 06:56:17;;;;;;;18.13;11.97;;;;;;;-6.12;100.00;96395.69;5091857;28;20466;-68
2021/12/23 06:58:48;;;;;;;19.00;13.67;;;;;;;-6.14;100.00;96395.91;5090396;28;20469;-68
2021/12/23 07:01:18;;;;;;;19.23;14.30;;;;;;;-6.16;100.00;96389.38;5090555;28;20444;-68
2021/12/23 07:06:22;;;;;;;16.73;12.03;;;;;;;-6.17;100.00;96383.44;5091760;28;20408;-69
2021/12/23 07:08:49;;;;;;;36.13;17.30;;;;;;;-6.23;100.00;96378.41;5090386;28;20790;-69
2021/12/23 07:11:16;;;;;;;29.70;18.17;;;;;;;-6.34;100.00;96375.56;5090375;28;20989;-69
2021/12/23 07:13:43;;;;;;;31.80;18.90;;;;;;;-6.28;100.00;96371.31;5090229;28;20502;-68
2021/12/23 07:16:09;;;;;;;30.40;16.47;;;;;;;-6.21;100.00;96384.91;5091034;28;20508;-69
2021/12/23 07:18:36;;;;;;;21.60;14.70;;;;;;;-6.06;100.00;96405.88;5091191;28;20508;-69
2021/12/23 07:21:03;;;;;;;22.87;17.87;;;;;;;-5.99;100.00;96403.22;5091537;28;20428;-69
2021/12/23 07:23:29;;;;;;;17.87;12.50;;;;;;;-5.98;100.00;96413.28;5090140;28;20468;-69
2021/12/23 07:25:56;;;;;;;17.27;13.13;;;;;;;-6.02;100.00;96396.69;5091516;28;20786;-69
2021/12/23 07:28:28;;;;;;;15.23;13.60;;;;;;;-5.83;100.00;96397.41;5091392;28;20960;-69
2021/12/23 07:30:55;;;;;;;18.43;13.80;;;;;;;-5.91;100.00;96387.44;5089998;28;20471;-69
2021/12/23 07:33:22;;;;;;;23.27;13.70;;;;;;;-6.12;100.00;96367.38;5090024;28;20459;-69
2021/12/23 07:35:49;;;;;;;22.83;14.20;;;;;;;-6.15;100.00;96363.44;5091285;28;20428;-70
2021/12/23 07:38:16;;;;;;;21.63;14.17;;;;;;;-6.04;100.00;96390.97;5090031;28;20443;-69
2021/12/23 07:40:43;;;;;;;18.43;13.40;;;;;;;-6.03;100.00;96400.28;5073259;28;20474;-69
2021/12/23 07:43:20;;;;;;;21.60;14.33;;;;;;;-6.04;100.00;96390.97;5089940;28;20485;-70
2021/12/23 07:45:47;;;;;;;23.30;17.93;;;;;;;-6.16;100.00;96387.59;5089972;28;20461;-69
2021/12/23 07:48:14;;;;;;;26.73;16.87;;;;;;;-6.05;100.00;96415.16;5089872;28;20461;-69
2021/12/23 07:50:41;;;;;;;25.10;18.80;;;;;;;-6.06;100.00;96407.66;5091300;28;20435;-68
2021/12/23 07:53:08;;;;;;;19.40;16.40;;;;;;;-6.00;100.00;96396.50;5089901;28;20455;-69
2021/12/23 07:55:38;;;;;;;26.10;15.47;;;;;;;-6.01;100.00;96402.63;5091246;28;20427;-69
2021/12/23 07:58:04;;;;;;;19.30;14.00;;;;;;;-5.98;100.00;96391.91;5091146;28;20451;-69
2021/12/23 08:00:31;;;;;;;22.40;17.90;;;;;;;-5.91;100.00;96384.88;5089662;28;20521;-70
2021/12/23 08:02:58;;;;;;;24.07;16.37;;;;;;;-6.09;100.00;96331.69;5089698;28;20442;-69
2021/12/23 08:05:25;;;;;;;22.27;15.60;;;;;;;-5.88;100.00;96368.16;5089752;28;20439;-70
2021/12/23 08:07:54;;;;;;;19.83;15.83;;;;;;;-5.91;100.00;96358.34;5089609;28;20451;-69
2021/12/23 08:10:21;;;;;;;26.43;14.83;;;;;;;-5.88;100.00;96363.03;5089759;28;20942;-69
2021/12/23 08:12:47;;;;;;;23.40;16.60;;;;;;;-5.80;100.00;96368.63;5091253;28;20853;-69
2021/12/23 08:15:14;;;;;;;22.47;17.07;;;;;;;-5.78;100.00;96358.91;5089558;28;20436;-69
2021/12/23 08:17:41;;;;;;;21.30;15.13;;;;;;;-5.66;100.00;96366.66;5091191;28;20817;-69
2021/12/23 08:20:10;;;;;;;22.97;16.73;;;;;;;-5.58;100.00;96381.78;5089522;28;20931;-69
2021/12/23 08:22:37;;;;;;;22.07;15.77;;;;;;;-5.51;100.00;96372.13;5091004;28;20888;-69
2021/12/23 08:25:05;;;;;;;24.10;17.67;;;;;;;-5.54;100.00;96364.09;5089471;28;20439;-69
2021/12/23 08:27:33;;;;;;;23.80;18.83;;;;;;;-5.57;100.00;96338.78;5090383;28;20470;-68
2021/12/23 08:30:00;;;;;;;32.83;17.73;;;;;;;-5.46;100.00;96338.78;5093518;28;20443;-70
2021/12/23 08:32:27;;;;;;;27.50;15.80;;;;;;;-5.39;100.00;96342.03;5093704;28;20548;-69
2021/12/23 08:34:53;;;;;;;24.63;16.40;;;;;;;-5.33;100.00;96326.69;5094986;28;20467;-68
2021/12/23 08:37:20;;;;;;;24.90;16.23;;;;;;;-5.22;100.00;96343.91;5076615;28;20486;-69
2021/12/23 08:39:48;;;;;;;22.77;17.47;;;;;;;-5.20;100.00;96340.13;5094556;28;20439;-69
2021/12/23 08:42:15;;;;;;;25.03;16.40;;;;;;;-5.48;100.00;96312.44;5076415;28;20439;-68
2021/12/23 08:44:41;;;;;;;26.47;19.07;;;;;;;-5.25;100.00;96334.06;5076318;28;20554;-68
2021/12/23 08:47:09;;;;;;;24.10;17.23;;;;;;;-5.23;100.00;96326.88;5092916;28;20451;-69
2021/12/23 08:49:37;;;;;;;22.67;17.07;;;;;;;-5.10;100.00;96344.69;5093087;28;20435;-69
2021/12/23 08:52:04;;;;;;;25.30;16.63;;;;;;;-5.00;100.00;96333.81;5092962;28;20431;-69
2021/12/23 08:54:31;;;;;;;26.90;15.30;;;;;;;-4.84;100.00;96331.28;5076026;28;20462;-69
2021/12/23 08:56:58;;;;;;;28.27;18.90;;;;;;;-5.53;100.00;96224.81;5092644;28;20538;-69
2021/12/23 08:59:24;;;;;;;24.00;17.10;;;;;;;-4.85;100.00;96337.47;5092670;28;20451;-69
2021/12/23 09:01:51;;;;;;;25.07;16.70;;;;;;;-4.79;100.00;96330.63;5094123;28;20431;-69
2021/12/23 09:04:18;;;;;;;21.13;15.80;;;;;;;-4.88;100.00;96330.19;5076043;28;20440;-69
2021/12/23 09:06:45;;;;;;;23.80;16.90;;;;;;;-4.74;100.00;96312.66;5075797;28;20583;-69
2021/12/23 09:09:12;;;;;;;21.67;17.87;;;;;;;-4.78;100.00;96316.72;5092587;28;20492;-69
2021/12/23 09:11:39;;;;;;;25.00;16.33;;;;;;;-4.78;100.00;96340.72;5075826;28;20435;-69
2021/12/23 09:14:06;;;;;;;26.40;17.77;;;;;;;-4.71;100.00;96337.19;5092417;28;20487;-69
2021/12/23 09:16:33;;;;;;;29.57;18.37;;;;;;;-5.02;100.00;96297.16;5092703;28;20427;-69
2021/12/23 09:18:59;;;;;;;24.10;17.57;;;;;;;-4.65;100.00;96331.16;5092823;28;20432;-69
2021/12/23 09:21:26;;;;;;;25.40;18.37;;;;;;;-4.71;100.00;96314.78;5092767;28;20481;-69
2021/12/23 09:24:02;;;;;;;27.30;20.17;;;;;;;-4.61;100.00;96339.97;5092421;28;20972;-69
2021/12/23 09:26:32;;;;;;;24.40;17.60;;;;;;;-4.44;100.00;96351.13;5093983;28;20838;-69
2021/12/23 09:29:10;;;;;;;29.43;18.07;;;;;;;-4.54;100.00;96363.81;5092332;28;20462;-69
2021/12/23 09:34:22;;;;;;;25.23;18.80;;;;;;;-4.49;100.00;96343.31;5092360;28;20474;-69
2021/12/23 09:36:49;;;;;;;25.80;18.70;;;;;;;-4.39;100.00;96340.91;5092437;28;20459;-69
2021/12/23 09:39:16;;;;;;;25.77;17.37;;;;;;;-4.24;100.00;96348.16;5091734;28;20439;-71
2021/12/23 09:41:44;;;;;;;29.57;20.00;;;;;;;-4.18;100.00;96347.19;5091983;28;20479;-70
2021/12/23 09:44:11;;;;;;;32.27;18.80;;;;;;;-4.26;100.00;96358.69;5092071;28;20467;-66
2021/12/23 09:46:39;;;;;;;24.87;16.43;;;;;;;-4.23;100.00;96347.13;5092238;28;20483;-70
2021/12/23 09:49:06;;;;;;;28.10;19.63;;;;;;;-4.15;100.00;96341.56;5093675;28;20543;-70
2021/12/23 09:51:35;;;;;;;27.73;18.60;;;;;;;-4.11;100.00;96331.59;5093434;28;20554;-70
2021/12/23 09:54:08;;;;;;;24.23;17.40;;;;;;;-4.23;100.00;96311.78;5075491;28;20479;-70
2021/12/23 09:56:36;;;;;;;24.27;16.43;;;;;;;-4.11;100.00;96311.72;5092146;28;20472;-70
2021/12/23 09:59:06;;;;;;;26.87;16.50;;;;;;;-4.09;100.00;96303.75;5091747;28;20496;-71
2021/12/23 10:01:34;;;;;;;28.30;20.03;;;;;;;-4.13;100.00;96303.44;5091796;28;20424;-71
2021/12/23 10:04:02;;;;;;;29.80;18.83;;;;;;;-4.31;100.00;96278.59;5074915;28;20442;-71
2021/12/23 10:06:29;;;;;;;28.90;19.07;;;;;;;-4.17;100.00;96292.78;5091765;28;20470;-71
2021/12/23 10:08:56;;;;;;;29.67;22.70;;;;;;;-4.07;100.00;96299.13;5091673;28;20471;-71
2021/12/23 10:11:34;;;;;;;29.40;18.10;;;;;;;-4.00;100.00;96292.81;5091545;28;20493;-71
2021/12/23 10:31:35;;;;;;;25.93;18.77;;;;;;;-4.00;100.00;96227.47;5091079;28;20791;-70
2021/12/23 10:37:22;;;;;;;31.00;19.60;;;;;;;-3.87;100.00;96250.41;5069043;28;20455;-71
2021/12/23 10:40:04;;;;;;;26.60;19.50;;;;;;;-3.72;100.00;96247.25;5090952;28;20450;-71
2021/12/23 10:42:31;;;;;;;29.37;20.30;;;;;;;-3.72;100.00;96248.03;5090697;28;20488;-71
2021/12/23 10:45:00;;;;;;;30.50;21.93;;;;;;;-3.65;100.00;96240.88;5090643;28;20981;-71
2021/12/23 10:47:53;;;;;;;35.67;23.30;;;;;;;-3.55;100.00;96247.22;5090763;28;20455;-71
2021/12/23 10:50:45;;;;;;;30.77;19.87;;;;;;;-3.54;100.00;96241.78;5074018;28;20428;-72
2021/12/23 10:53:56;;;;;;;31.37;18.40;;;;;;;-3.58;100.00;96226.00;5092006;28;20853;-70
2021/12/23 10:59:16;;;;;;;33.50;21.97;;;;;;;-3.57;100.00;96237.91;5091763;28;20445;-71
2021/12/23 11:02:02;;;;;;;27.57;19.17;;;;;;;-3.56;100.00;96238.69;5073728;28;20515;-71
2021/12/23 11:04:35;;;;;;;29.00;18.93;;;;;;;-3.61;100.00;96225.69;5091886;28;20433;-71
2021/12/23 11:07:15;;;;;;;27.13;20.10;;;;;;;-3.54;100.00;96222.94;5090767;28;20856;-71
2021/12/23 11:10:16;;;;;;;31.53;20.30;;;;;;;-3.47;100.00;96216.59;5091751;28;20450;-71
2021/12/23 11:38:24;;;;;;;33.53;21.67;;;;;;;-3.30;100.00;96182.91;5091420;28;20490;-71
2021/12/23 11:40:54;;;;;;;33.53;20.43;;;;;;;-3.28;100.00;96181.66;5089978;28;20556;-69
2021/12/23 11:43:46;;;;;;;32.57;19.40;;;;;;;-3.55;100.00;96141.28;5089927;28;21016;-69
2021/12/23 11:46:15;;;;;;;32.37;21.00;;;;;;;-3.34;100.00;96179.25;5090025;28;20454;-68
2021/12/23 11:48:45;;;;;;;30.37;19.40;;;;;;;-3.38;100.00;96167.81;5073099;28;20496;-69
2021/12/23 11:51:19;;;;;;;29.67;20.53;;;;;;;-3.36;100.00;96163.19;5089953;28;20443;-71
2021/12/23 11:53:48;;;;;;;29.87;19.40;;;;;;;-3.22;100.00;96158.44;5089854;28;20804;-72
2021/12/23 11:56:18;;;;;;;47.40;26.77;;;;;;;-3.24;100.00;96148.34;5091324;28;20934;-71
2021/12/23 11:58:47;;;;;;;28.13;21.00;;;;;;;-3.30;100.00;96137.19;5089689;28;20469;-71
2021/12/23 12:01:17;;;;;;;33.60;23.13;;;;;;;-3.25;100.00;96135.66;5091282;28;20443;-71
2021/12/23 12:04:09;;;;;;;39.73;27.67;;;;;;;-3.19;100.00;96132.13;5093322;28;20424;-71
2021/12/23 12:06:38;;;;;;;32.57;21.10;;;;;;;-3.28;100.00;96124.78;5076976;28;20463;-70
2021/12/23 12:09:26;;;;;;;31.53;22.17;;;;;;;-3.24;100.00;96126.88;5095005;28;20984;-71
2021/12/23 12:11:58;;;;;;;35.40;21.77;;;;;;;-3.26;100.00;96119.38;5093797;28;20948;-69
2021/12/23 12:14:34;;;;;;;32.10;22.77;;;;;;;-3.25;100.00;96122.75;5076832;28;20491;-69
2021/12/23 12:17:26;;;;;;;30.50;20.67;;;;;;;-3.25;100.00;96123.53;5093492;28;20565;-69
2021/12/23 12:20:20;;;;;;;39.27;23.80;;;;;;;-3.17;100.00;96114.56;5094871;28;20430;-69